createdAt,value
2023-03-17T00:00:13.563Z,69.78
2023-03-17T00:01:13.576Z,70.85
2023-03-17T00:02:13.572Z,70.75
2023-03-17T00:03:13.537Z,70.64
2023-03-17T00:04:13.526Z,71.27
2023-03-17T00:05:13.502Z,70.75
2023-03-17T00:06:13.494Z,71.06
2023-03-17T00:07:13.511Z,70.99
2023-03-17T00:08:13.487Z,69.67
2023-03-17T00:09:13.460Z,68.70
2023-03-17T00:10:13.459Z,69.32
2023-03-17T00:11:13.438Z,67.66
2023-03-17T00:12:13.432Z,67.00
2023-03-17T00:13:13.442Z,65.96
2023-03-17T00:14:13.423Z,65.65
2023-03-17T00:15:13.397Z,65.10
2023-03-17T00:16:13.470Z,65.93
2023-03-17T00:17:13.397Z,66.14
2023-03-17T00:18:13.366Z,65.31
2023-03-17T00:19:13.390Z,64.89
2023-03-17T00:20:13.343Z,67.46
2023-03-17T00:21:13.331Z,66.77
2023-03-17T00:22:13.325Z,68.50
2023-03-17T00:23:13.311Z,68.32
2023-03-17T00:24:14.983Z,69.05
2023-03-17T00:25:13.323Z,66.77
2023-03-17T00:26:13.281Z,65.93
2023-03-17T00:27:13.276Z,67.05
2023-03-17T00:28:13.257Z,67.18
2023-03-17T00:29:13.278Z,65.90
2023-03-17T00:30:13.240Z,67.18
2023-03-17T00:31:13.389Z,66.97
2023-03-17T00:32:13.216Z,66.94
2023-03-17T00:33:13.232Z,66.77
2023-03-17T00:34:13.197Z,68.43
2023-03-17T00:35:13.178Z,66.66
2023-03-17T00:36:13.175Z,68.29
2023-03-17T00:37:13.207Z,68.95
2023-03-17T00:38:13.151Z,69.57
2023-03-17T00:39:43.538Z,69.05
2023-03-17T00:40:43.538Z,70.06
2023-03-17T00:41:43.624Z,68.53
2023-03-17T00:42:43.526Z,68.32
2023-03-17T00:43:43.493Z,68.71
2023-03-17T00:44:43.487Z,69.05
2023-03-17T00:45:43.470Z,69.05
2023-03-17T00:46:43.586Z,67.70
2023-03-17T00:47:43.450Z,65.90
2023-03-17T00:48:43.516Z,67.49
2023-03-17T00:49:43.492Z,65.69
2023-03-17T00:50:43.421Z,66.42
2023-03-17T00:51:43.421Z,67.80
2023-03-17T00:52:43.401Z,68.84
2023-03-17T00:53:43.388Z,69.37
2023-03-17T00:54:43.407Z,69.57
2023-03-17T00:55:43.374Z,70.09
2023-03-17T00:56:43.357Z,70.30
2023-03-17T00:57:43.343Z,70.30
2023-03-17T00:58:43.333Z,69.40
2023-03-17T00:59:43.351Z,68.15
2023-03-17T01:00:43.370Z,65.93
2023-03-17T01:01:43.367Z,64.76
2023-03-17T01:02:43.294Z,65.31
2023-03-17T01:03:43.294Z,65.93
2023-03-17T01:04:47.603Z,65.28
2023-03-17T01:05:44.255Z,66.63
2023-03-17T01:06:43.517Z,66.74
2023-03-17T01:07:43.235Z,66.42
2023-03-17T01:08:43.225Z,66.03
2023-03-17T01:09:43.225Z,65.90
2023-03-17T01:10:43.221Z,65.80
2023-03-17T01:11:43.207Z,66.97
2023-03-17T01:12:43.214Z,66.77
2023-03-17T01:13:43.167Z,66.87
2023-03-17T01:14:43.181Z,68.43
2023-03-17T01:15:43.148Z,69.05
2023-03-17T01:16:43.318Z,69.78
2023-03-17T01:17:43.129Z,70.20
2023-03-17T01:18:43.173Z,68.74
2023-03-17T01:19:43.116Z,68.95
2023-03-17T01:20:43.122Z,68.22
2023-03-17T01:21:43.085Z,66.90
2023-03-17T01:22:43.078Z,67.70
2023-03-17T01:23:43.060Z,68.04
2023-03-17T01:24:43.078Z,68.25
2023-03-17T01:25:43.059Z,67.49
2023-03-17T01:26:43.049Z,66.80
2023-03-17T01:27:43.019Z,66.80
2023-03-17T01:28:43.013Z,67.00
2023-03-17T01:29:43.015Z,66.80
2023-03-17T01:30:43.028Z,68.25
2023-03-17T01:31:43.040Z,67.91
2023-03-17T01:32:42.978Z,68.04
2023-03-17T01:33:42.954Z,66.80
2023-03-17T01:34:42.947Z,66.77
2023-03-17T01:35:42.955Z,66.80
2023-03-17T01:36:42.985Z,66.38
2023-03-17T01:37:42.915Z,67.42
2023-03-17T01:38:42.901Z,67.21
2023-03-17T01:39:42.893Z,66.97
2023-03-17T01:40:42.889Z,67.11
2023-03-17T01:41:42.870Z,66.87
2023-03-17T01:42:42.917Z,68.35
2023-03-17T01:43:42.850Z,68.84
2023-03-17T01:44:42.841Z,69.19
2023-03-17T01:45:42.886Z,67.00
2023-03-17T01:46:42.829Z,66.97
2023-03-17T01:47:42.803Z,66.59
2023-03-17T01:48:42.845Z,67.08
2023-03-17T01:49:42.804Z,68.53
2023-03-17T01:50:42.779Z,68.53
2023-03-17T01:51:42.772Z,67.08
2023-03-17T01:52:42.771Z,66.97
2023-03-17T01:53:42.738Z,66.90
2023-03-17T01:54:42.774Z,66.24
2023-03-17T01:55:42.718Z,65.38
2023-03-17T01:56:42.724Z,65.80
2023-03-17T01:57:42.697Z,66.56
2023-03-17T01:58:42.689Z,65.83
2023-03-17T01:59:42.681Z,65.90
2023-03-17T02:00:42.729Z,65.31
2023-03-17T02:01:42.664Z,65.90
2023-03-17T02:02:42.646Z,66.84
2023-03-17T02:03:42.635Z,66.84
2023-03-17T02:04:42.641Z,67.08
2023-03-17T02:05:42.610Z,66.84
2023-03-17T02:06:56.737Z,67.08
2023-03-17T02:07:43.601Z,66.87
2023-03-17T02:08:42.600Z,67.08
2023-03-17T02:09:42.584Z,66.63
2023-03-17T02:10:42.563Z,66.56
2023-03-17T02:11:42.545Z,67.39
2023-03-17T02:12:42.564Z,66.94
2023-03-17T02:13:42.554Z,66.97
2023-03-17T02:14:42.515Z,67.25
2023-03-17T02:15:42.533Z,66.94
2023-03-17T02:16:42.525Z,67.29
2023-03-17T02:17:42.480Z,67.05
2023-03-17T02:18:42.508Z,67.05
2023-03-17T02:19:42.460Z,65.38
2023-03-17T02:20:42.469Z,64.76
2023-03-17T02:21:42.436Z,65.35
2023-03-17T02:22:42.430Z,66.08
2023-03-17T02:23:42.425Z,66.71
2023-03-17T02:24:42.438Z,66.91
2023-03-17T02:25:42.399Z,67.22
2023-03-17T02:26:42.394Z,66.08
2023-03-17T02:27:42.375Z,66.94
2023-03-17T02:28:42.361Z,66.91
2023-03-17T02:29:42.358Z,67.22
2023-03-17T02:30:42.400Z,65.66
2023-03-17T02:31:42.365Z,66.00
2023-03-17T02:32:42.371Z,65.87
2023-03-17T02:33:42.313Z,65.45
2023-03-17T02:34:42.298Z,65.97
2023-03-17T02:35:42.367Z,65.66
2023-03-17T02:36:42.381Z,66.91
2023-03-17T02:37:42.292Z,66.81
2023-03-17T02:38:42.255Z,66.71
2023-03-17T02:39:42.249Z,67.36
2023-03-17T02:40:42.255Z,66.84
2023-03-17T02:41:42.238Z,66.94
2023-03-17T02:42:42.264Z,66.84
2023-03-17T02:43:42.220Z,68.81
2023-03-17T02:44:42.193Z,67.54
2023-03-17T02:45:42.253Z,67.74
2023-03-17T02:46:42.176Z,66.81
2023-03-17T02:47:42.165Z,66.42
2023-03-17T02:48:42.185Z,66.42
2023-03-17T02:49:42.154Z,65.66
2023-03-17T02:50:42.127Z,65.35
2023-03-17T02:51:42.121Z,65.66
2023-03-17T02:52:42.109Z,65.87
2023-03-17T02:53:42.104Z,66.08
2023-03-17T02:54:42.127Z,65.66
2023-03-17T02:55:42.131Z,65.35
2023-03-17T02:56:42.096Z,64.83
2023-03-17T02:57:42.056Z,64.94
2023-03-17T02:58:42.091Z,65.14
2023-03-17T02:59:42.048Z,64.62
2023-03-17T03:00:42.058Z,65.25
2023-03-17T03:01:42.132Z,65.35
2023-03-17T03:02:42.126Z,65.04
2023-03-17T03:03:42.025Z,64.83
2023-03-17T03:04:41.982Z,65.25
2023-03-17T03:05:41.983Z,66.08
2023-03-17T03:06:41.994Z,65.87
2023-03-17T03:07:41.948Z,64.52
2023-03-17T03:08:41.949Z,64.73
2023-03-17T03:09:41.946Z,65.25
2023-03-17T03:10:41.913Z,65.25
2023-03-17T03:11:41.914Z,65.77
2023-03-17T03:12:41.938Z,65.77
2023-03-17T03:13:41.886Z,66.28
2023-03-17T03:14:41.883Z,65.45
2023-03-17T03:15:41.949Z,65.35
2023-03-17T03:16:41.855Z,65.66
2023-03-17T03:17:41.842Z,65.87
2023-03-17T03:18:41.856Z,65.66
2023-03-17T03:19:41.822Z,65.45
2023-03-17T03:20:41.825Z,65.45
2023-03-17T03:21:41.802Z,65.35
2023-03-17T03:22:41.803Z,64.62
2023-03-17T03:23:41.780Z,64.42
2023-03-17T03:24:41.785Z,65.01
2023-03-17T03:25:41.783Z,65.04
2023-03-17T03:26:41.790Z,65.45
2023-03-17T03:27:41.742Z,65.45
2023-03-17T03:28:41.745Z,64.52
2023-03-17T03:29:41.753Z,64.94
2023-03-17T03:30:41.724Z,65.35
2023-03-17T03:31:41.715Z,65.77
2023-03-17T03:32:41.739Z,66.08
2023-03-17T03:33:41.671Z,65.87
2023-03-17T03:34:41.678Z,66.71
2023-03-17T03:35:41.712Z,66.91
2023-03-17T03:36:41.680Z,67.64
2023-03-17T03:37:41.633Z,66.81
2023-03-17T03:38:41.633Z,67.85
2023-03-17T03:39:41.608Z,67.22
2023-03-17T03:40:41.592Z,65.22
2023-03-17T03:41:41.582Z,65.84
2023-03-17T03:42:41.604Z,64.70
2023-03-17T03:43:41.571Z,65.14
2023-03-17T03:44:41.565Z,65.01
2023-03-17T03:45:41.544Z,63.63
2023-03-17T03:46:41.585Z,62.80
2023-03-17T03:47:41.524Z,64.67
2023-03-17T03:48:41.557Z,63.94
2023-03-17T03:49:41.508Z,63.63
2023-03-17T03:50:41.481Z,63.73
2023-03-17T03:51:41.491Z,63.94
2023-03-17T03:52:41.460Z,64.04
2023-03-17T03:53:41.451Z,64.02
2023-03-17T03:54:41.460Z,65.08
2023-03-17T03:55:41.428Z,65.91
2023-03-17T03:56:41.435Z,66.96
2023-03-17T03:57:41.414Z,66.67
2023-03-17T03:58:41.391Z,65.19
2023-03-17T03:59:41.384Z,64.67
2023-03-17T04:00:41.418Z,64.25
2023-03-17T04:01:41.363Z,65.39
2023-03-17T04:02:41.374Z,64.46
2023-03-17T04:03:41.352Z,65.11
2023-03-17T04:04:41.394Z,64.18
2023-03-17T04:05:41.325Z,63.87
2023-03-17T04:06:41.324Z,62.80
2023-03-17T04:07:41.299Z,64.18
2023-03-17T04:08:41.296Z,64.70
2023-03-17T04:09:41.276Z,66.08
2023-03-17T04:10:41.281Z,66.71
2023-03-17T04:11:41.255Z,67.22
2023-03-17T04:12:41.268Z,67.64
2023-03-17T04:13:41.234Z,67.22
2023-03-17T04:14:41.217Z,66.50
2023-03-17T04:15:41.236Z,64.18
2023-03-17T04:16:43.409Z,66.91
2023-03-17T04:17:41.215Z,65.35
2023-03-17T04:18:41.229Z,64.07
2023-03-17T04:19:41.168Z,65.45
2023-03-17T04:20:41.158Z,62.73
2023-03-17T04:21:41.168Z,64.07
2023-03-17T04:22:41.134Z,65.63
2023-03-17T04:23:41.126Z,64.70
2023-03-17T04:24:41.145Z,64.07
2023-03-17T04:25:41.103Z,65.32
2023-03-17T04:26:41.089Z,65.42
2023-03-17T04:27:41.097Z,65.39
2023-03-17T04:28:41.099Z,66.99
2023-03-17T04:29:41.064Z,66.67
2023-03-17T04:30:41.072Z,65.11
2023-03-17T04:31:41.092Z,65.22
2023-03-17T04:32:41.141Z,65.11
2023-03-17T04:33:41.034Z,64.90
2023-03-17T04:34:41.006Z,64.90
2023-03-17T04:35:41.011Z,65.22
2023-03-17T04:36:41.016Z,64.15
2023-03-17T04:37:40.974Z,63.35
2023-03-17T04:38:40.967Z,63.73
2023-03-17T04:39:40.970Z,63.94
2023-03-17T04:40:40.959Z,64.04
2023-03-17T04:41:40.939Z,64.39
2023-03-17T04:42:40.952Z,63.84
2023-03-17T04:43:40.912Z,64.87
2023-03-17T04:44:40.898Z,66.47
2023-03-17T04:45:40.979Z,66.47
2023-03-17T04:46:40.873Z,65.32
2023-03-17T04:47:40.874Z,65.01
2023-03-17T04:48:40.885Z,63.97
2023-03-17T04:49:40.857Z,63.97
2023-03-17T04:50:40.830Z,64.07
2023-03-17T04:51:40.826Z,63.45
2023-03-17T04:52:40.810Z,63.84
2023-03-17T04:53:40.845Z,62.80
2023-03-17T04:54:40.820Z,64.25
2023-03-17T04:55:40.783Z,63.66
2023-03-17T04:56:40.782Z,63.45
2023-03-17T04:57:40.756Z,63.53
2023-03-17T04:58:40.764Z,64.07
2023-03-17T04:59:40.759Z,63.66
2023-03-17T05:00:40.800Z,64.07
2023-03-17T05:01:40.714Z,64.07
2023-03-17T05:02:40.766Z,63.97
2023-03-17T05:03:40.690Z,64.07
2023-03-17T05:04:40.715Z,64.80
2023-03-17T05:05:40.715Z,64.90
2023-03-17T05:06:40.715Z,62.62
2023-03-17T05:07:40.658Z,63.45
2023-03-17T05:08:40.645Z,61.58
2023-03-17T05:09:40.637Z,63.87
2023-03-17T05:10:40.615Z,64.28
2023-03-17T05:11:40.619Z,64.90
2023-03-17T05:12:40.619Z,64.80
2023-03-17T05:13:40.586Z,65.45
2023-03-17T05:14:40.579Z,64.94
2023-03-17T05:15:40.561Z,65.14
2023-03-17T05:16:40.651Z,65.25
2023-03-17T05:17:40.550Z,65.04
2023-03-17T05:18:40.553Z,65.66
2023-03-17T05:19:40.521Z,65.25
2023-03-17T05:20:40.532Z,65.04
2023-03-17T05:21:40.509Z,64.83
2023-03-17T05:22:40.495Z,65.04
2023-03-17T05:23:40.474Z,64.62
2023-03-17T05:24:40.519Z,64.31
2023-03-17T05:25:40.461Z,65.53
2023-03-17T05:26:40.442Z,65.45
2023-03-17T05:27:40.433Z,64.21
2023-03-17T05:28:40.434Z,62.41
2023-03-17T05:29:40.412Z,62.21
2023-03-17T05:30:40.437Z,63.24
2023-03-17T05:31:40.391Z,62.73
2023-03-17T05:32:40.471Z,62.36
2023-03-17T05:33:40.368Z,62.49
2023-03-17T05:34:40.378Z,62.18
2023-03-17T05:35:40.364Z,62.28
2023-03-17T05:36:40.366Z,63.24
2023-03-17T05:37:40.324Z,63.97
2023-03-17T05:38:40.319Z,64.18
2023-03-17T05:39:40.314Z,62.41
2023-03-17T05:40:40.287Z,61.58
2023-03-17T05:41:40.279Z,62.59
2023-03-17T05:42:40.289Z,61.97
2023-03-17T05:43:40.256Z,63.11
2023-03-17T05:44:40.246Z,63.04
2023-03-17T05:45:40.398Z,63.56
2023-03-17T05:46:40.231Z,63.35
2023-03-17T05:47:40.213Z,62.83
2023-03-17T05:48:40.236Z,63.56
2023-03-17T05:49:40.208Z,62.59
2023-03-17T05:50:40.199Z,63.35
2023-03-17T05:51:40.175Z,63.35
2023-03-17T05:52:40.176Z,63.07
2023-03-17T05:53:40.155Z,62.02
2023-03-17T05:54:40.173Z,61.55
2023-03-17T05:55:40.130Z,61.79
2023-03-17T05:56:40.146Z,62.18
2023-03-17T05:57:40.111Z,62.28
2023-03-17T05:58:40.095Z,62.49
2023-03-17T05:59:40.089Z,62.49
2023-03-17T06:00:40.101Z,61.14
2023-03-17T06:01:40.082Z,60.18
2023-03-17T06:02:40.211Z,60.91
2023-03-17T06:03:40.058Z,61.63
2023-03-17T06:04:40.033Z,61.01
2023-03-17T06:05:40.036Z,60.15
2023-03-17T06:06:40.065Z,60.39
2023-03-17T06:07:51.673Z,60.46
2023-03-17T06:08:41.018Z,59.94
2023-03-17T06:09:39.991Z,60.15
2023-03-17T06:10:39.969Z,61.43
2023-03-17T06:11:39.959Z,60.67
2023-03-17T06:12:39.971Z,60.57
2023-03-17T06:13:39.956Z,60.77
2023-03-17T06:14:39.924Z,60.98
2023-03-17T06:15:40.035Z,60.57
2023-03-17T06:16:39.905Z,60.77
2023-03-17T06:17:39.898Z,60.98
2023-03-17T06:18:39.909Z,60.57
2023-03-17T06:19:39.887Z,60.05
2023-03-17T06:20:39.868Z,60.15
2023-03-17T06:21:39.887Z,60.85
2023-03-17T06:22:51.667Z,60.88
2023-03-17T06:23:40.842Z,61.29
2023-03-17T06:24:39.883Z,62.64
2023-03-17T06:25:39.821Z,62.74
2023-03-17T06:26:39.801Z,62.05
2023-03-17T06:27:39.801Z,61.40
2023-03-17T06:28:39.773Z,60.46
2023-03-17T06:29:39.765Z,60.57
2023-03-17T06:30:40.856Z,62.30
2023-03-17T06:31:39.886Z,64.51
2023-03-17T06:32:39.762Z,64.72
2023-03-17T06:33:39.736Z,66.09
2023-03-17T06:34:39.708Z,67.44
2023-03-17T06:35:39.737Z,68.59
2023-03-17T06:36:39.716Z,65.37
2023-03-17T06:37:39.680Z,65.13
2023-03-17T06:38:39.667Z,65.13
2023-03-17T06:39:39.667Z,65.34
2023-03-17T06:40:39.666Z,63.78
2023-03-17T06:41:39.632Z,62.30
2023-03-17T06:42:39.666Z,62.30
2023-03-17T06:43:39.610Z,62.40
2023-03-17T06:44:39.607Z,60.93
2023-03-17T06:45:39.608Z,58.23
2023-03-17T06:46:39.712Z,57.30
2023-03-17T06:47:39.642Z,56.03
2023-03-17T06:48:39.585Z,56.21
2023-03-17T06:49:39.546Z,54.48
2023-03-17T06:50:39.545Z,53.76
2023-03-17T06:51:39.525Z,51.75
2023-03-17T06:52:39.516Z,50.51
2023-03-17T06:53:39.521Z,51.39
2023-03-17T06:54:39.535Z,48.98
2023-03-17T06:55:39.482Z,49.16
2023-03-17T06:56:39.497Z,48.19
2023-03-17T06:57:39.471Z,48.27
2023-03-17T06:58:39.461Z,48.66
2023-03-17T06:59:39.499Z,49.19
2023-03-17T07:00:39.457Z,48.76
2023-03-17T07:01:39.493Z,47.51
2023-03-17T07:02:39.411Z,47.30
2023-03-17T07:03:39.411Z,49.07
2023-03-17T07:04:39.509Z,50.61
2023-03-17T07:05:39.401Z,47.81
2023-03-17T07:06:39.400Z,49.15
2023-03-17T07:07:39.380Z,47.49
2023-03-17T07:08:39.344Z,48.92
2023-03-17T07:09:39.328Z,48.51
2023-03-17T07:10:39.322Z,49.43
2023-03-17T07:11:39.321Z,48.02
2023-03-17T07:12:39.322Z,50.20
2023-03-17T07:13:39.349Z,48.27
2023-03-17T07:14:39.308Z,49.35
2023-03-17T07:15:39.264Z,48.92
2023-03-17T07:16:39.342Z,48.82
2023-03-17T07:17:39.287Z,47.16
2023-03-17T07:18:39.272Z,48.26
2023-03-17T07:19:39.243Z,48.36
2023-03-17T07:20:39.212Z,45.89
2023-03-17T07:21:39.199Z,48.57
2023-03-17T07:22:39.221Z,45.97
2023-03-17T07:23:39.223Z,46.56
2023-03-17T07:24:39.212Z,46.89
2023-03-17T07:25:39.178Z,47.71
2023-03-17T07:26:39.149Z,45.53
2023-03-17T07:27:39.135Z,45.97
2023-03-17T07:28:39.215Z,45.80
2023-03-17T07:29:39.124Z,44.96
2023-03-17T07:30:39.122Z,45.56
2023-03-17T07:31:39.164Z,46.25
2023-03-17T07:32:39.088Z,47.05
2023-03-17T07:33:39.073Z,46.15
2023-03-17T07:34:39.070Z,47.50
2023-03-17T07:35:39.138Z,47.71
2023-03-17T07:36:39.055Z,45.89
2023-03-17T07:37:39.049Z,46.25
2023-03-17T07:38:39.029Z,47.19
2023-03-17T07:39:39.020Z,47.81
2023-03-17T07:40:39.054Z,46.44
2023-03-17T07:41:38.994Z,46.53
2023-03-17T07:42:38.988Z,48.15
2023-03-17T07:43:38.960Z,46.74
2023-03-17T07:44:39.012Z,47.15
2023-03-17T07:45:39.057Z,45.33
2023-03-17T07:46:39.141Z,45.97
2023-03-17T07:47:38.916Z,46.07
2023-03-17T07:48:38.941Z,46.66
2023-03-17T07:49:42.003Z,48.38
2023-03-17T07:50:38.904Z,46.66
2023-03-17T07:51:38.893Z,46.35
2023-03-17T07:52:38.900Z,46.23
2023-03-17T07:53:38.872Z,46.53
2023-03-17T07:54:40.818Z,46.35
2023-03-17T07:55:38.865Z,47.48
2023-03-17T07:56:38.826Z,48.86
2023-03-17T07:57:38.909Z,47.52
2023-03-17T07:58:38.810Z,47.13
2023-03-17T07:59:38.791Z,46.92
2023-03-17T08:00:38.808Z,48.13
2023-03-17T08:01:38.816Z,45.98
2023-03-17T08:02:38.928Z,47.19
2023-03-17T08:03:41.371Z,46.90
2023-03-17T08:04:38.740Z,46.08
2023-03-17T08:05:38.766Z,46.06
2023-03-17T08:06:38.727Z,45.86
2023-03-17T08:07:38.750Z,45.55
2023-03-17T08:08:38.703Z,43.59
2023-03-17T08:09:38.698Z,46.25
2023-03-17T08:10:38.668Z,45.63
2023-03-17T08:11:38.660Z,45.84
2023-03-17T08:12:38.664Z,49.08
2023-03-17T08:13:38.663Z,45.53
2023-03-17T08:14:38.631Z,46.75
2023-03-17T08:15:38.640Z,48.18
2023-03-17T08:16:38.764Z,48.47
2023-03-17T08:17:38.623Z,46.83
2023-03-17T08:18:38.623Z,46.71
2023-03-17T08:19:38.626Z,47.53
2023-03-17T08:20:38.581Z,45.77
2023-03-17T08:21:38.558Z,42.71
2023-03-17T08:22:38.533Z,48.02
2023-03-17T08:23:38.531Z,48.24
2023-03-17T08:24:38.587Z,50.38
2023-03-17T08:25:38.555Z,48.63
2023-03-17T08:26:38.488Z,48.85
2023-03-17T08:27:38.516Z,49.67
2023-03-17T08:28:38.531Z,49.51
2023-03-17T08:29:38.457Z,48.59
2023-03-17T08:30:38.934Z,50.33
2023-03-17T08:31:38.612Z,49.92
2023-03-17T08:32:38.521Z,49.29
2023-03-17T08:33:38.419Z,48.44
2023-03-17T08:34:38.403Z,47.27
2023-03-17T08:35:38.409Z,48.88
2023-03-17T08:36:38.415Z,48.96
2023-03-17T08:37:38.378Z,47.42
2023-03-17T08:38:38.374Z,49.59
2023-03-17T08:39:38.354Z,48.24
2023-03-17T08:40:38.340Z,48.96
2023-03-17T08:41:38.338Z,48.65
2023-03-17T08:42:38.358Z,50.89
2023-03-17T08:43:38.303Z,50.64
2023-03-17T08:44:38.311Z,48.26
2023-03-17T08:45:38.281Z,48.65
2023-03-17T08:46:38.281Z,47.24
2023-03-17T08:47:38.274Z,48.36
2023-03-17T08:48:38.281Z,47.02
2023-03-17T08:49:38.277Z,45.87
2023-03-17T08:50:38.230Z,45.95
2023-03-17T08:51:38.220Z,47.61
2023-03-17T08:52:38.214Z,47.09
2023-03-17T08:53:38.210Z,47.22
2023-03-17T08:54:38.230Z,48.83
2023-03-17T08:55:38.174Z,48.32
2023-03-17T08:56:38.188Z,49.50
2023-03-17T08:57:38.150Z,49.09
2023-03-17T08:58:38.145Z,46.95
2023-03-17T08:59:38.155Z,46.14
2023-03-17T09:00:38.138Z,46.77
2023-03-17T09:01:38.123Z,46.28
2023-03-17T09:02:38.205Z,47.05
2023-03-17T09:03:38.107Z,46.83
2023-03-17T09:04:40.056Z,44.69
2023-03-17T09:05:38.662Z,43.57
2023-03-17T09:06:39.634Z,43.37
2023-03-17T09:07:38.147Z,45.01
2023-03-17T09:08:38.037Z,46.42
2023-03-17T09:09:38.044Z,46.62
2023-03-17T09:10:38.016Z,46.01
2023-03-17T09:11:38.018Z,45.00
2023-03-17T09:12:38.009Z,44.89
2023-03-17T09:13:37.999Z,44.57
2023-03-17T09:14:43.971Z,45.56
2023-03-17T09:15:39.066Z,44.42
2023-03-17T09:16:37.973Z,43.71
2023-03-17T09:17:37.971Z,44.93
2023-03-17T09:18:37.937Z,45.87
2023-03-17T09:19:37.916Z,45.67
2023-03-17T09:20:37.938Z,45.20
2023-03-17T09:21:37.895Z,45.61
2023-03-17T09:22:37.886Z,48.03
2023-03-17T09:23:37.904Z,46.34
2023-03-17T09:24:37.866Z,47.66
2023-03-17T09:25:37.857Z,45.61
2023-03-17T09:26:37.846Z,45.48
2023-03-17T09:27:37.824Z,45.46
2023-03-17T09:28:37.819Z,46.48
2023-03-17T09:29:37.835Z,47.50
2023-03-17T09:30:37.812Z,45.46
2023-03-17T09:31:37.815Z,46.58
2023-03-17T09:32:37.825Z,46.17
2023-03-17T09:33:37.762Z,48.16
2023-03-17T09:34:37.759Z,44.83
2023-03-17T09:35:37.784Z,45.24
2023-03-17T09:36:37.770Z,46.36
2023-03-17T09:37:37.720Z,45.84
2023-03-17T09:38:37.717Z,45.67
2023-03-17T09:39:37.700Z,45.00
2023-03-17T09:40:37.692Z,47.24
2023-03-17T09:41:37.689Z,47.03
2023-03-17T09:42:37.688Z,48.05
2023-03-17T09:43:37.661Z,45.71
2023-03-17T09:44:37.645Z,47.26
2023-03-17T09:45:37.634Z,47.97
2023-03-17T09:46:37.668Z,47.36
2023-03-17T09:47:37.642Z,45.28
2023-03-17T09:48:37.605Z,47.17
2023-03-17T09:49:37.593Z,45.84
2023-03-17T09:50:37.593Z,43.55
2023-03-17T09:51:37.575Z,44.28
2023-03-17T09:52:37.580Z,45.50
2023-03-17T09:53:37.573Z,45.68
2023-03-17T09:54:37.537Z,45.26
2023-03-17T09:55:37.524Z,44.65
2023-03-17T09:56:37.527Z,45.26
2023-03-17T09:57:37.519Z,43.44
2023-03-17T09:58:37.492Z,45.15
2023-03-17T09:59:37.493Z,44.34
2023-03-17T10:00:37.486Z,45.36
2023-03-17T10:01:37.493Z,45.97
2023-03-17T10:02:37.480Z,44.85
2023-03-17T10:03:37.525Z,44.54
2023-03-17T10:04:37.431Z,45.28
2023-03-17T10:05:37.536Z,45.30
2023-03-17T10:06:37.417Z,44.08
2023-03-17T10:07:37.402Z,45.50
2023-03-17T10:08:37.420Z,45.67
2023-03-17T10:09:37.407Z,44.67
2023-03-17T10:10:37.363Z,46.40
2023-03-17T10:11:37.367Z,43.65
2023-03-17T10:12:37.350Z,43.63
2023-03-17T10:13:37.330Z,45.34
2023-03-17T10:14:37.350Z,43.51
2023-03-17T10:15:37.310Z,43.73
2023-03-17T10:16:37.332Z,43.53
2023-03-17T10:17:37.299Z,45.34
2023-03-17T10:18:37.279Z,46.15
2023-03-17T10:19:37.267Z,45.06
2023-03-17T10:20:37.270Z,45.64
2023-03-17T10:21:37.244Z,45.44
2023-03-17T10:22:37.234Z,46.66
2023-03-17T10:23:37.258Z,44.42
2023-03-17T10:24:37.237Z,43.61
2023-03-17T10:25:37.205Z,45.03
2023-03-17T10:26:37.209Z,45.01
2023-03-17T10:27:37.217Z,45.60
2023-03-17T10:28:37.170Z,45.58
2023-03-17T10:29:37.194Z,41.54
2023-03-17T10:30:37.176Z,43.38
2023-03-17T10:31:37.228Z,42.57
2023-03-17T10:32:37.153Z,41.70
2023-03-17T10:33:37.126Z,43.20
2023-03-17T10:34:38.101Z,42.45
2023-03-17T10:35:37.129Z,42.76
2023-03-17T10:36:37.086Z,42.33
2023-03-17T10:37:37.071Z,42.94
2023-03-17T10:38:37.060Z,42.63
2023-03-17T10:39:37.070Z,41.30
2023-03-17T10:40:37.059Z,41.80
2023-03-17T10:41:37.045Z,42.33
2023-03-17T10:42:37.019Z,43.23
2023-03-17T10:43:37.008Z,41.17
2023-03-17T10:44:37.006Z,40.36
2023-03-17T10:45:39.144Z,41.50
2023-03-17T10:46:37.000Z,39.96
2023-03-17T10:47:36.971Z,40.08
2023-03-17T10:48:36.958Z,42.29
2023-03-17T10:49:36.939Z,41.54
2023-03-17T10:50:36.929Z,41.44
2023-03-17T10:51:36.934Z,41.44
2023-03-17T10:52:36.931Z,41.52
2023-03-17T10:53:36.907Z,40.12
2023-03-17T10:54:36.895Z,40.04
2023-03-17T10:55:36.886Z,41.34
2023-03-17T10:56:36.913Z,39.84
2023-03-17T10:57:36.855Z,41.64
2023-03-17T10:58:36.859Z,41.24
2023-03-17T10:59:36.850Z,43.04
2023-03-17T11:00:36.917Z,40.85
2023-03-17T11:01:36.831Z,41.28
2023-03-17T11:02:36.816Z,39.75
2023-03-17T11:03:36.824Z,40.65
2023-03-17T11:04:36.778Z,40.71
2023-03-17T11:05:38.339Z,40.22
2023-03-17T11:06:36.766Z,38.82
2023-03-17T11:07:36.748Z,40.24
2023-03-17T11:08:36.745Z,39.21
2023-03-17T11:09:36.738Z,40.41
2023-03-17T11:10:36.710Z,40.33
2023-03-17T11:11:36.716Z,39.84
2023-03-17T11:12:36.902Z,41.86
2023-03-17T11:13:36.683Z,43.35
2023-03-17T11:14:36.686Z,39.80
2023-03-17T11:15:36.663Z,40.11
2023-03-17T11:16:36.713Z,41.22
2023-03-17T11:17:36.656Z,40.49
2023-03-17T11:18:36.624Z,37.88
2023-03-17T11:19:36.616Z,39.50
2023-03-17T11:20:36.622Z,40.41
2023-03-17T11:21:36.594Z,39.31
2023-03-17T11:22:36.582Z,38.52
2023-03-17T11:23:36.583Z,40.14
2023-03-17T11:24:36.561Z,40.65
2023-03-17T11:25:36.552Z,39.65
2023-03-17T11:26:36.557Z,39.96
2023-03-17T11:27:36.530Z,41.38
2023-03-17T11:28:36.534Z,41.48
2023-03-17T11:29:36.518Z,41.78
2023-03-17T11:30:36.492Z,41.48
2023-03-17T11:31:36.541Z,41.30
2023-03-17T11:32:36.516Z,40.59
2023-03-17T11:33:36.537Z,40.97
2023-03-17T11:34:36.464Z,41.86
2023-03-17T11:35:36.491Z,38.45
2023-03-17T11:36:36.426Z,41.78
2023-03-17T11:37:36.433Z,40.36
2023-03-17T11:38:36.440Z,40.55
2023-03-17T11:39:36.399Z,40.34
2023-03-17T11:40:36.395Z,40.26
2023-03-17T11:41:36.404Z,40.36
2023-03-17T11:42:36.364Z,41.17
2023-03-17T11:43:36.360Z,42.09
2023-03-17T11:44:36.373Z,42.51
2023-03-17T11:45:36.399Z,43.81
2023-03-17T11:46:36.327Z,45.21
2023-03-17T11:47:36.347Z,43.30
2023-03-17T11:48:36.301Z,44.68
2023-03-17T11:49:36.303Z,43.29
2023-03-17T11:50:36.275Z,44.32
2023-03-17T11:51:36.268Z,45.31
2023-03-17T11:52:36.261Z,42.90
2023-03-17T11:53:36.257Z,43.38
2023-03-17T11:54:36.231Z,43.49
2023-03-17T11:55:36.236Z,44.50
2023-03-17T11:56:36.210Z,43.69
2023-03-17T11:57:36.199Z,41.46
2023-03-17T11:58:36.209Z,43.49
2023-03-17T11:59:36.213Z,41.46
2023-03-17T12:00:36.184Z,41.28
2023-03-17T12:01:36.154Z,42.39
2023-03-17T12:02:36.151Z,40.56
2023-03-17T12:03:36.175Z,41.68
2023-03-17T12:04:36.207Z,41.28
2023-03-17T12:05:36.138Z,42.80
2023-03-17T12:06:36.097Z,42.29
2023-03-17T12:07:36.088Z,44.38
2023-03-17T12:08:36.076Z,41.48
2023-03-17T12:09:36.066Z,40.87
2023-03-17T12:10:36.057Z,38.43
2023-03-17T12:11:36.067Z,38.95
2023-03-17T12:12:36.072Z,41.46
2023-03-17T12:13:36.022Z,43.38
2023-03-17T12:14:36.006Z,43.98
2023-03-17T12:15:36.012Z,42.27
2023-03-17T12:16:36.003Z,42.27
2023-03-17T12:17:36.007Z,43.26
2023-03-17T12:18:35.967Z,41.56
2023-03-17T12:19:35.958Z,42.27
2023-03-17T12:20:35.941Z,40.75
2023-03-17T12:21:35.949Z,41.46
2023-03-17T12:22:35.924Z,41.77
2023-03-17T12:23:35.923Z,42.27
2023-03-17T12:24:35.896Z,42.88
2023-03-17T12:25:35.889Z,43.49
2023-03-17T12:26:35.879Z,44.06
2023-03-17T12:27:35.890Z,42.74
2023-03-17T12:28:35.857Z,41.63
2023-03-17T12:29:35.860Z,43.14
2023-03-17T12:30:35.830Z,41.44
2023-03-17T12:31:35.902Z,44.56
2023-03-17T12:32:35.929Z,43.32
2023-03-17T12:33:35.802Z,42.43
2023-03-17T12:34:35.788Z,44.76
2023-03-17T12:35:35.846Z,44.74
2023-03-17T12:36:35.770Z,41.71
2023-03-17T12:37:35.771Z,42.82
2023-03-17T12:38:35.746Z,41.58
2023-03-17T12:39:35.747Z,41.63
2023-03-17T12:40:35.722Z,42.84
2023-03-17T12:41:35.722Z,43.32
2023-03-17T12:42:35.726Z,43.32
2023-03-17T12:43:35.690Z,42.63
2023-03-17T12:44:35.684Z,42.74
2023-03-17T12:45:35.665Z,43.55
2023-03-17T12:46:35.719Z,44.46
2023-03-17T12:47:35.651Z,44.64
2023-03-17T12:48:35.685Z,44.13
2023-03-17T12:49:35.624Z,43.52
2023-03-17T12:50:35.634Z,43.63
2023-03-17T12:51:38.363Z,43.43
2023-03-17T12:52:35.595Z,41.52